sensor_id;sensor_type;location;lat;lon;timestamp;temperature;humidity
11264;DHT22;5689;48.798;9.070;2023-05-19T00:02:22;11.90;94.40
11264;DHT22;5689;48.798;9.070;2023-05-19T00:04:51;12.00;94.30
11264;DHT22;5689;48.798;9.070;2023-05-19T00:07:25;12.00;94.50
11264;DHT22;5689;48.798;9.070;2023-05-19T00:09:56;12.10;94.90
11264;DHT22;5689;48.798;9.070;2023-05-19T00:12:24;11.90;94.20
11264;DHT22;5689;48.798;9.070;2023-05-19T00:14:53;11.80;94.50
11264;DHT22;5689;48.798;9.070;2023-05-19T00:17:21;11.50;94.80
11264;DHT22;5689;48.798;9.070;2023-05-19T00:19:49;11.40;95.50
11264;DHT22;5689;48.798;9.070;2023-05-19T00:22:18;11.50;95.10
11264;DHT22;5689;48.798;9.070;2023-05-19T00:24:47;11.40;95.50
11264;DHT22;5689;48.798;9.070;2023-05-19T00:27:15;11.30;95.20
11264;DHT22;5689;48.798;9.070;2023-05-19T00:29:44;11.30;95.60
11264;DHT22;5689;48.798;9.070;2023-05-19T00:32:12;11.40;95.40
11264;DHT22;5689;48.798;9.070;2023-05-19T00:34:40;11.50;96.10
11264;DHT22;5689;48.798;9.070;2023-05-19T00:37:08;11.50;95.60
11264;DHT22;5689;48.798;9.070;2023-05-19T00:39:36;11.70;95.80
11264;DHT22;5689;48.798;9.070;2023-05-19T00:42:05;11.60;95.80
11264;DHT22;5689;48.798;9.070;2023-05-19T00:44:36;11.40;96.40
11264;DHT22;5689;48.798;9.070;2023-05-19T00:47:07;11.40;96.90
11264;DHT22;5689;48.798;9.070;2023-05-19T00:49:35;11.40;96.70
11264;DHT22;5689;48.798;9.070;2023-05-19T00:52:04;11.40;96.80
11264;DHT22;5689;48.798;9.070;2023-05-19T00:54:33;11.50;97.10
11264;DHT22;5689;48.798;9.070;2023-05-19T00:57:02;11.50;97.40
11264;DHT22;5689;48.798;9.070;2023-05-19T00:59:31;11.40;97.40
11264;DHT22;5689;48.798;9.070;2023-05-19T01:01:59;11.40;97.70
11264;DHT22;5689;48.798;9.070;2023-05-19T01:04:28;11.20;97.40
11264;DHT22;5689;48.798;9.070;2023-05-19T01:07:00;11.10;97.70
11264;DHT22;5689;48.798;9.070;2023-05-19T01:09:28;10.90;97.90
11264;DHT22;5689;48.798;9.070;2023-05-19T01:11:58;10.80;98.80
11264;DHT22;5689;48.798;9.070;2023-05-19T01:14:29;10.80;99.10
11264;DHT22;5689;48.798;9.070;2023-05-19T01:17:03;10.80;99.00
11264;DHT22;5689;48.798;9.070;2023-05-19T01:19:52;11.00;99.30
11264;DHT22;5689;48.798;9.070;2023-05-19T01:22:36;11.00;99.40
11264;DHT22;5689;48.798;9.070;2023-05-19T01:28:25;11.10;99.50
11264;DHT22;5689;48.798;9.070;2023-05-19T01:30:59;11.10;99.90
11264;DHT22;5689;48.798;9.070;2023-05-19T01:33:29;11.10;99.90
11264;DHT22;5689;48.798;9.070;2023-05-19T01:35:59;11.10;99.30
11264;DHT22;5689;48.798;9.070;2023-05-19T01:38:29;11.10;99.60
11264;DHT22;5689;48.798;9.070;2023-05-19T01:40:59;11.10;99.10
11264;DHT22;5689;48.798;9.070;2023-05-19T01:43:30;11.10;99.30
11264;DHT22;5689;48.798;9.070;2023-05-19T01:46:00;10.90;99.90
11264;DHT22;5689;48.798;9.070;2023-05-19T01:48:29;11.10;99.90
11264;DHT22;5689;48.798;9.070;2023-05-19T01:50:58;11.10;99.70
11264;DHT22;5689;48.798;9.070;2023-05-19T01:53:26;11.10;99.70
11264;DHT22;5689;48.798;9.070;2023-05-19T01:55:55;11.20;99.60
11264;DHT22;5689;48.798;9.070;2023-05-19T01:58:31;11.20;99.00
11264;DHT22;5689;48.798;9.070;2023-05-19T02:01:14;11.10;99.30
11264;DHT22;5689;48.798;9.070;2023-05-19T02:03:59;11.00;99.90
11264;DHT22;5689;48.798;9.070;2023-05-19T02:06:34;11.00;99.90
11264;DHT22;5689;48.798;9.070;2023-05-19T02:09:10;11.00;99.90
11264;DHT22;5689;48.798;9.070;2023-05-19T02:11:43;11.00;99.90
11264;DHT22;5689;48.798;9.070;2023-05-19T02:14:14;10.70;99.90
11264;DHT22;5689;48.798;9.070;2023-05-19T02:16:47;10.70;99.90
11264;DHT22;5689;48.798;9.070;2023-05-19T02:19:20;10.70;99.90
11264;DHT22;5689;48.798;9.070;2023-05-19T02:21:49;10.60;99.90
11264;DHT22;5689;48.798;9.070;2023-05-19T02:24:20;10.70;99.90
11264;DHT22;5689;48.798;9.070;2023-05-19T02:26:48;10.60;99.90
11264;DHT22;5689;48.798;9.070;2023-05-19T02:29:18;10.60;99.90
11264;DHT22;5689;48.798;9.070;2023-05-19T02:31:47;10.50;99.90
11264;DHT22;5689;48.798;9.070;2023-05-19T02:34:15;10.40;99.90
11264;DHT22;5689;48.798;9.070;2023-05-19T02:36:43;10.50;99.90
11264;DHT22;5689;48.798;9.070;2023-05-19T02:39:15;10.60;99.90
11264;DHT22;5689;48.798;9.070;2023-05-19T02:41:43;11.30;99.90
11264;DHT22;5689;48.798;9.070;2023-05-19T02:44:11;10.50;99.90
11264;DHT22;5689;48.798;9.070;2023-05-19T02:46:51;10.50;99.90
11264;DHT22;5689;48.798;9.070;2023-05-19T02:49:20;10.40;99.90
11264;DHT22;5689;48.798;9.070;2023-05-19T02:51:47;10.60;99.90
11264;DHT22;5689;48.798;9.070;2023-05-19T02:54:16;10.50;99.90
11264;DHT22;5689;48.798;9.070;2023-05-19T02:56:44;10.20;99.90
11264;DHT22;5689;48.798;9.070;2023-05-19T02:59:12;10.10;99.90
11264;DHT22;5689;48.798;9.070;2023-05-19T03:01:40;10.20;99.90
11264;DHT22;5689;48.798;9.070;2023-05-19T03:04:10;10.10;99.90
11264;DHT22;5689;48.798;9.070;2023-05-19T03:06:39;10.20;99.90
11264;DHT22;5689;48.798;9.070;2023-05-19T03:09:08;10.20;99.90
11264;DHT22;5689;48.798;9.070;2023-05-19T03:11:37;10.20;99.90
11264;DHT22;5689;48.798;9.070;2023-05-19T03:14:19;10.10;99.90
11264;DHT22;5689;48.798;9.070;2023-05-19T03:16:49;10.00;99.90
11264;DHT22;5689;48.798;9.070;2023-05-19T03:19:18;10.20;99.90
11264;DHT22;5689;48.798;9.070;2023-05-19T03:21:47;10.10;99.90
11264;DHT22;5689;48.798;9.070;2023-05-19T03:24:15;10.00;99.90
11264;DHT22;5689;48.798;9.070;2023-05-19T03:26:43;10.10;99.90
11264;DHT22;5689;48.798;9.070;2023-05-19T03:29:12;10.10;99.90
11264;DHT22;5689;48.798;9.070;2023-05-19T03:31:40;10.10;99.90
11264;DHT22;5689;48.798;9.070;2023-05-19T03:34:08;9.90;99.90
11264;DHT22;5689;48.798;9.070;2023-05-19T03:36:37;10.00;99.90
11264;DHT22;5689;48.798;9.070;2023-05-19T03:39:13;9.90;99.90
11264;DHT22;5689;48.798;9.070;2023-05-19T03:41:48;9.70;99.90
11264;DHT22;5689;48.798;9.070;2023-05-19T03:44:16;9.90;99.90
11264;DHT22;5689;48.798;9.070;2023-05-19T03:46:44;10.00;99.90
11264;DHT22;5689;48.798;9.070;2023-05-19T03:49:36;10.00;99.90
11264;DHT22;5689;48.798;9.070;2023-05-19T03:52:29;10.00;99.90
11264;DHT22;5689;48.798;9.070;2023-05-19T03:55:06;10.20;99.90
11264;DHT22;5689;48.798;9.070;2023-05-19T03:57:34;9.90;99.90
11264;DHT22;5689;48.798;9.070;2023-05-19T04:00:04;9.90;99.90
11264;DHT22;5689;48.798;9.070;2023-05-19T04:02:37;9.60;99.90
11264;DHT22;5689;48.798;9.070;2023-05-19T04:05:07;9.50;99.90
11264;DHT22;5689;48.798;9.070;2023-05-19T04:07:37;9.50;99.90
11264;DHT22;5689;48.798;9.070;2023-05-19T04:10:06;9.40;99.90
11264;DHT22;5689;48.798;9.070;2023-05-19T04:12:36;9.50;99.90
11264;DHT22;5689;48.798;9.070;2023-05-19T04:15:10;9.60;99.90
11264;DHT22;5689;48.798;9.070;2023-05-19T04:17:39;9.70;99.90
11264;DHT22;5689;48.798;9.070;2023-05-19T04:20:09;9.80;99.90
11264;DHT22;5689;48.798;9.070;2023-05-19T04:22:39;9.80;99.90
11264;DHT22;5689;48.798;9.070;2023-05-19T04:25:07;9.80;99.90
11264;DHT22;5689;48.798;9.070;2023-05-19T04:27:36;9.80;99.90
11264;DHT22;5689;48.798;9.070;2023-05-19T04:30:06;9.90;99.90
11264;DHT22;5689;48.798;9.070;2023-05-19T04:32:35;10.10;99.90
11264;DHT22;5689;48.798;9.070;2023-05-19T04:35:05;10.10;99.90
11264;DHT22;5689;48.798;9.070;2023-05-19T04:37:34;10.10;99.90
11264;DHT22;5689;48.798;9.070;2023-05-19T04:40:24;10.20;99.90
11264;DHT22;5689;48.798;9.070;2023-05-19T04:42:52;10.00;99.90
11264;DHT22;5689;48.798;9.070;2023-05-19T04:45:21;10.00;99.90
11264;DHT22;5689;48.798;9.070;2023-05-19T04:47:51;10.00;99.90
11264;DHT22;5689;48.798;9.070;2023-05-19T04:50:23;10.20;99.90
11264;DHT22;5689;48.798;9.070;2023-05-19T04:52:51;10.30;99.90
11264;DHT22;5689;48.798;9.070;2023-05-19T04:55:19;10.60;99.90
11264;DHT22;5689;48.798;9.070;2023-05-19T04:57:50;10.60;99.90
11264;DHT22;5689;48.798;9.070;2023-05-19T05:00:20;10.50;99.90
11264;DHT22;5689;48.798;9.070;2023-05-19T05:03:07;10.50;99.90
11264;DHT22;5689;48.798;9.070;2023-05-19T05:05:35;10.50;99.90
11264;DHT22;5689;48.798;9.070;2023-05-19T05:08:03;10.40;99.90
11264;DHT22;5689;48.798;9.070;2023-05-19T05:10:36;10.40;99.90
11264;DHT22;5689;48.798;9.070;2023-05-19T05:13:06;10.70;99.90
11264;DHT22;5689;48.798;9.070;2023-05-19T05:15:36;10.70;99.90
11264;DHT22;5689;48.798;9.070;2023-05-19T05:18:04;10.70;99.90
11264;DHT22;5689;48.798;9.070;2023-05-19T05:20:34;10.60;99.90
11264;DHT22;5689;48.798;9.070;2023-05-19T05:23:02;10.50;99.90
11264;DHT22;5689;48.798;9.070;2023-05-19T05:25:32;11.10;99.90
11264;DHT22;5689;48.798;9.070;2023-05-19T05:28:01;11.40;99.90
11264;DHT22;5689;48.798;9.070;2023-05-19T05:30:33;11.70;99.90
11264;DHT22;5689;48.798;9.070;2023-05-19T05:33:03;11.50;99.90
11264;DHT22;5689;48.798;9.070;2023-05-19T05:35:35;11.50;99.90
11264;DHT22;5689;48.798;9.070;2023-05-19T05:38:04;11.90;99.90
11264;DHT22;5689;48.798;9.070;2023-05-19T05:40:33;11.60;99.90
11264;DHT22;5689;48.798;9.070;2023-05-19T05:43:02;11.60;99.90
11264;DHT22;5689;48.798;9.070;2023-05-19T05:45:35;11.20;99.90
11264;DHT22;5689;48.798;9.070;2023-05-19T05:48:05;11.00;99.90
11264;DHT22;5689;48.798;9.070;2023-05-19T05:50:34;11.20;99.90
11264;DHT22;5689;48.798;9.070;2023-05-19T05:53:02;11.40;99.90
11264;DHT22;5689;48.798;9.070;2023-05-19T05:55:36;11.60;99.90
11264;DHT22;5689;48.798;9.070;2023-05-19T05:58:05;12.30;99.90
11264;DHT22;5689;48.798;9.070;2023-05-19T06:00:38;12.20;99.90
11264;DHT22;5689;48.798;9.070;2023-05-19T06:03:09;12.50;99.90
11264;DHT22;5689;48.798;9.070;2023-05-19T06:05:37;12.80;99.90
11264;DHT22;5689;48.798;9.070;2023-05-19T06:08:05;13.20;99.90
11264;DHT22;5689;48.798;9.070;2023-05-19T06:10:34;13.70;99.80
11264;DHT22;5689;48.798;9.070;2023-05-19T06:13:07;14.10;99.10
11264;DHT22;5689;48.798;9.070;2023-05-19T06:15:38;13.80;99.60
11264;DHT22;5689;48.798;9.070;2023-05-19T06:18:16;13.40;99.90
11264;DHT22;5689;48.798;9.070;2023-05-19T06:20:46;14.20;99.30
11264;DHT22;5689;48.798;9.070;2023-05-19T06:23:15;14.80;97.80
11264;DHT22;5689;48.798;9.070;2023-05-19T06:25:43;15.30;96.50
11264;DHT22;5689;48.798;9.070;2023-05-19T06:28:12;15.50;96.00
11264;DHT22;5689;48.798;9.070;2023-05-19T06:30:41;15.40;97.00
11264;DHT22;5689;48.798;9.070;2023-05-19T06:33:30;15.20;96.30
11264;DHT22;5689;48.798;9.070;2023-05-19T06:35:58;15.80;95.60
11264;DHT22;5689;48.798;9.070;2023-05-19T06:38:27;14.80;98.00
11264;DHT22;5689;48.798;9.070;2023-05-19T06:40:55;14.90;98.10
11264;DHT22;5689;48.798;9.070;2023-05-19T06:43:23;15.90;95.00
11264;DHT22;5689;48.798;9.070;2023-05-19T06:45:57;16.30;94.00
11264;DHT22;5689;48.798;9.070;2023-05-19T06:48:25;16.80;93.30
11264;DHT22;5689;48.798;9.070;2023-05-19T06:50:53;16.90;92.80
11264;DHT22;5689;48.798;9.070;2023-05-19T06:53:22;16.50;93.60
11264;DHT22;5689;48.798;9.070;2023-05-19T06:55:51;16.10;93.70
11264;DHT22;5689;48.798;9.070;2023-05-19T06:58:26;15.60;94.70
11264;DHT22;5689;48.798;9.070;2023-05-19T07:00:56;16.10;94.20
11264;DHT22;5689;48.798;9.070;2023-05-19T07:03:29;17.00;93.40
11264;DHT22;5689;48.798;9.070;2023-05-19T07:05:57;18.00;91.80
11264;DHT22;5689;48.798;9.070;2023-05-19T07:08:26;18.30;91.00
11264;DHT22;5689;48.798;9.070;2023-05-19T07:10:58;17.90;91.40
11264;DHT22;5689;48.798;9.070;2023-05-19T07:13:27;17.60;92.20
11264;DHT22;5689;48.798;9.070;2023-05-19T07:15:57;16.60;93.50
11264;DHT22;5689;48.798;9.070;2023-05-19T07:18:27;17.00;92.50
11264;DHT22;5689;48.798;9.070;2023-05-19T07:20:57;15.70;93.70
11264;DHT22;5689;48.798;9.070;2023-05-19T07:23:25;15.60;95.20
11264;DHT22;5689;48.798;9.070;2023-05-19T07:25:54;15.70;94.20
11264;DHT22;5689;48.798;9.070;2023-05-19T07:28:22;15.40;94.80
11264;DHT22;5689;48.798;9.070;2023-05-19T07:30:50;15.50;94.80
11264;DHT22;5689;48.798;9.070;2023-05-19T07:33:20;15.70;95.80
11264;DHT22;5689;48.798;9.070;2023-05-19T07:35:48;16.00;94.30
11264;DHT22;5689;48.798;9.070;2023-05-19T07:38:16;16.20;93.80
11264;DHT22;5689;48.798;9.070;2023-05-19T07:40:44;15.40;94.40
11264;DHT22;5689;48.798;9.070;2023-05-19T07:43:12;14.80;96.00
11264;DHT22;5689;48.798;9.070;2023-05-19T07:45:40;15.10;95.30
11264;DHT22;5689;48.798;9.070;2023-05-19T07:48:08;14.70;95.80
11264;DHT22;5689;48.798;9.070;2023-05-19T07:50:37;14.50;96.00
11264;DHT22;5689;48.798;9.070;2023-05-19T07:53:05;14.60;96.10
11264;DHT22;5689;48.798;9.070;2023-05-19T07:55:33;14.60;96.30
11264;DHT22;5689;48.798;9.070;2023-05-19T07:58:01;15.00;94.90
11264;DHT22;5689;48.798;9.070;2023-05-19T08:00:29;15.20;95.30
11264;DHT22;5689;48.798;9.070;2023-05-19T08:02:57;15.50;94.40
11264;DHT22;5689;48.798;9.070;2023-05-19T08:05:26;15.80;94.10
11264;DHT22;5689;48.798;9.070;2023-05-19T08:07:56;15.70;94.00
11264;DHT22;5689;48.798;9.070;2023-05-19T08:10:25;16.10;93.60
11264;DHT22;5689;48.798;9.070;2023-05-19T08:12:54;16.40;92.90
11264;DHT22;5689;48.798;9.070;2023-05-19T08:15:22;16.30;93.50
11264;DHT22;5689;48.798;9.070;2023-05-19T08:17:51;16.00;93.20
11264;DHT22;5689;48.798;9.070;2023-05-19T08:20:19;16.00;93.20
11264;DHT22;5689;48.798;9.070;2023-05-19T08:22:48;15.30;93.20
11264;DHT22;5689;48.798;9.070;2023-05-19T08:25:17;15.40;94.40
11264;DHT22;5689;48.798;9.070;2023-05-19T08:27:45;15.20;94.20
11264;DHT22;5689;48.798;9.070;2023-05-19T08:30:14;14.80;94.40
11264;DHT22;5689;48.798;9.070;2023-05-19T08:32:42;15.10;94.80
11264;DHT22;5689;48.798;9.070;2023-05-19T08:35:10;15.40;93.60
11264;DHT22;5689;48.798;9.070;2023-05-19T08:37:38;15.30;94.40
11264;DHT22;5689;48.798;9.070;2023-05-19T08:40:07;15.80;94.30
11264;DHT22;5689;48.798;9.070;2023-05-19T08:42:40;15.90;93.40
11264;DHT22;5689;48.798;9.070;2023-05-19T08:45:08;15.80;93.70
11264;DHT22;5689;48.798;9.070;2023-05-19T08:47:37;15.60;93.30
11264;DHT22;5689;48.798;9.070;2023-05-19T08:50:06;15.20;94.10
11264;DHT22;5689;48.798;9.070;2023-05-19T08:52:50;15.40;94.60
11264;DHT22;5689;48.798;9.070;2023-05-19T08:55:28;15.10;94.90
11264;DHT22;5689;48.798;9.070;2023-05-19T08:58:02;15.40;94.70
11264;DHT22;5689;48.798;9.070;2023-05-19T09:00:31;15.70;93.60
11264;DHT22;5689;48.798;9.070;2023-05-19T09:03:00;15.80;93.30
11264;DHT22;5689;48.798;9.070;2023-05-19T09:05:37;15.60;94.10
11264;DHT22;5689;48.798;9.070;2023-05-19T09:08:06;16.30;93.00
11264;DHT22;5689;48.798;9.070;2023-05-19T09:10:34;16.70;92.80
11264;DHT22;5689;48.798;9.070;2023-05-19T09:13:04;16.80;92.30
11264;DHT22;5689;48.798;9.070;2023-05-19T09:15:33;17.00;92.10
11264;DHT22;5689;48.798;9.070;2023-05-19T09:18:05;16.70;92.40
11264;DHT22;5689;48.798;9.070;2023-05-19T09:20:38;16.50;92.00
11264;DHT22;5689;48.798;9.070;2023-05-19T09:23:11;16.10;92.70
11264;DHT22;5689;48.798;9.070;2023-05-19T09:25:45;16.30;93.00
11264;DHT22;5689;48.798;9.070;2023-05-19T09:28:22;16.20;92.70
11264;DHT22;5689;48.798;9.070;2023-05-19T09:30:58;16.00;92.90
11264;DHT22;5689;48.798;9.070;2023-05-19T09:33:26;15.90;92.70
11264;DHT22;5689;48.798;9.070;2023-05-19T09:35:55;15.50;92.90
11264;DHT22;5689;48.798;9.070;2023-05-19T09:38:23;15.30;94.00
11264;DHT22;5689;48.798;9.070;2023-05-19T09:40:54;15.60;93.70
11264;DHT22;5689;48.798;9.070;2023-05-19T09:43:26;16.10;93.30
11264;DHT22;5689;48.798;9.070;2023-05-19T09:45:58;15.80;92.80
11264;DHT22;5689;48.798;9.070;2023-05-19T09:48:26;15.50;94.00
11264;DHT22;5689;48.798;9.070;2023-05-19T09:50:54;15.40;94.30
11264;DHT22;5689;48.798;9.070;2023-05-19T09:53:23;15.60;93.20
11264;DHT22;5689;48.798;9.070;2023-05-19T09:55:54;15.50;93.20
11264;DHT22;5689;48.798;9.070;2023-05-19T09:58:25;15.30;93.80
11264;DHT22;5689;48.798;9.070;2023-05-19T10:00:54;15.30;94.60
11264;DHT22;5689;48.798;9.070;2023-05-19T10:03:24;15.90;94.00
11264;DHT22;5689;48.798;9.070;2023-05-19T10:05:53;16.40;93.00
11264;DHT22;5689;48.798;9.070;2023-05-19T10:08:21;16.80;92.40
11264;DHT22;5689;48.798;9.070;2023-05-19T10:10:52;16.80;92.90
11264;DHT22;5689;48.798;9.070;2023-05-19T10:13:20;17.20;91.80
11264;DHT22;5689;48.798;9.070;2023-05-19T10:15:51;17.00;91.50
11264;DHT22;5689;48.798;9.070;2023-05-19T10:18:24;16.80;92.30
11264;DHT22;5689;48.798;9.070;2023-05-19T10:20:53;16.10;92.30
11264;DHT22;5689;48.798;9.070;2023-05-19T10:23:21;16.00;92.40
11264;DHT22;5689;48.798;9.070;2023-05-19T10:25:50;15.90;92.60
11264;DHT22;5689;48.798;9.070;2023-05-19T10:28:23;16.30;92.30
11264;DHT22;5689;48.798;9.070;2023-05-19T10:30:57;16.40;91.90
11264;DHT22;5689;48.798;9.070;2023-05-19T10:33:38;16.20;92.30
11264;DHT22;5689;48.798;9.070;2023-05-19T10:36:24;15.80;93.00
11264;DHT22;5689;48.798;9.070;2023-05-19T10:39:02;16.10;93.50
11264;DHT22;5689;48.798;9.070;2023-05-19T10:41:40;16.00;93.00
11264;DHT22;5689;48.798;9.070;2023-05-19T10:44:22;15.50;92.80
11264;DHT22;5689;48.798;9.070;2023-05-19T10:46:56;16.00;92.90
11264;DHT22;5689;48.798;9.070;2023-05-19T10:49:24;16.60;92.30
11264;DHT22;5689;48.798;9.070;2023-05-19T10:51:54;16.60;92.40
11264;DHT22;5689;48.798;9.070;2023-05-19T10:54:39;16.60;92.20
11264;DHT22;5689;48.798;9.070;2023-05-19T10:57:13;16.20;92.40
11264;DHT22;5689;48.798;9.070;2023-05-19T10:59:42;16.20;92.60
11264;DHT22;5689;48.798;9.070;2023-05-19T11:02:35;16.20;92.80
11264;DHT22;5689;48.798;9.070;2023-05-19T11:05:06;16.20;92.20
11264;DHT22;5689;48.798;9.070;2023-05-19T11:07:35;16.10;92.90
11264;DHT22;5689;48.798;9.070;2023-05-19T11:10:07;16.10;93.00
11264;DHT22;5689;48.798;9.070;2023-05-19T11:12:39;15.50;92.80
11264;DHT22;5689;48.798;9.070;2023-05-19T11:15:13;14.90;93.80
11264;DHT22;5689;48.798;9.070;2023-05-19T11:17:47;15.30;94.00
11264;DHT22;5689;48.798;9.070;2023-05-19T11:20:23;15.80;93.30
11264;DHT22;5689;48.798;9.070;2023-05-19T11:23:05;15.40;93.30
11264;DHT22;5689;48.798;9.070;2023-05-19T11:25:44;15.50;93.40
11264;DHT22;5689;48.798;9.070;2023-05-19T11:28:15;15.70;93.90
11264;DHT22;5689;48.798;9.070;2023-05-19T11:30:45;15.40;94.00
11264;DHT22;5689;48.798;9.070;2023-05-19T11:33:18;15.30;93.40
11264;DHT22;5689;48.798;9.070;2023-05-19T11:35:48;14.90;93.70
11264;DHT22;5689;48.798;9.070;2023-05-19T11:38:17;15.10;94.30
11264;DHT22;5689;48.798;9.070;2023-05-19T11:40:47;15.00;94.10
11264;DHT22;5689;48.798;9.070;2023-05-19T11:43:15;15.40;93.70
11264;DHT22;5689;48.798;9.070;2023-05-19T11:45:44;15.70;92.90
11264;DHT22;5689;48.798;9.070;2023-05-19T11:48:12;15.80;92.60
11264;DHT22;5689;48.798;9.070;2023-05-19T11:50:43;15.10;93.40
11264;DHT22;5689;48.798;9.070;2023-05-19T11:53:13;15.40;93.70
11264;DHT22;5689;48.798;9.070;2023-05-19T11:55:43;15.70;94.20
11264;DHT22;5689;48.798;9.070;2023-05-19T11:58:12;16.40;93.00
11264;DHT22;5689;48.798;9.070;2023-05-19T12:00:42;16.70;92.60
11264;DHT22;5689;48.798;9.070;2023-05-19T12:03:12;16.80;92.60
11264;DHT22;5689;48.798;9.070;2023-05-19T12:05:44;17.00;91.90
11264;DHT22;5689;48.798;9.070;2023-05-19T12:08:13;17.30;91.90
11264;DHT22;5689;48.798;9.070;2023-05-19T12:10:41;17.20;91.90
11264;DHT22;5689;48.798;9.070;2023-05-19T12:13:09;17.40;91.50
11264;DHT22;5689;48.798;9.070;2023-05-19T12:15:37;17.20;91.80
11264;DHT22;5689;48.798;9.070;2023-05-19T12:18:05;16.80;92.40
11264;DHT22;5689;48.798;9.070;2023-05-19T12:20:33;16.90;92.00
11264;DHT22;5689;48.798;9.070;2023-05-19T12:23:03;16.30;92.70
11264;DHT22;5689;48.798;9.070;2023-05-19T12:25:32;16.60;92.30
11264;DHT22;5689;48.798;9.070;2023-05-19T12:28:00;16.40;92.30
11264;DHT22;5689;48.798;9.070;2023-05-19T12:30:30;16.10;92.10
11264;DHT22;5689;48.798;9.070;2023-05-19T12:33:00;16.10;92.30
11264;DHT22;5689;48.798;9.070;2023-05-19T12:35:30;15.90;93.00
11264;DHT22;5689;48.798;9.070;2023-05-19T12:38:03;16.00;92.20
11264;DHT22;5689;48.798;9.070;2023-05-19T12:40:32;16.00;93.00
11264;DHT22;5689;48.798;9.070;2023-05-19T12:43:00;16.50;92.80
11264;DHT22;5689;48.798;9.070;2023-05-19T12:45:32;16.90;92.40
11264;DHT22;5689;48.798;9.070;2023-05-19T12:48:02;17.20;92.20
11264;DHT22;5689;48.798;9.070;2023-05-19T12:50:31;17.20;91.20
11264;DHT22;5689;48.798;9.070;2023-05-19T12:52:59;17.20;91.30
11264;DHT22;5689;48.798;9.070;2023-05-19T12:55:29;17.00;92.00
11264;DHT22;5689;48.798;9.070;2023-05-19T12:57:57;16.40;92.50
11264;DHT22;5689;48.798;9.070;2023-05-19T13:00:25;16.20;92.40
11264;DHT22;5689;48.798;9.070;2023-05-19T13:02:58;15.50;92.30
11264;DHT22;5689;48.798;9.070;2023-05-19T13:05:28;15.00;93.60
11264;DHT22;5689;48.798;9.070;2023-05-19T13:07:57;15.10;94.20
11264;DHT22;5689;48.798;9.070;2023-05-19T13:10:26;15.60;94.00
11264;DHT22;5689;48.798;9.070;2023-05-19T13:12:56;15.50;93.60
11264;DHT22;5689;48.798;9.070;2023-05-19T13:15:27;15.60;94.40
11264;DHT22;5689;48.798;9.070;2023-05-19T13:17:57;15.60;93.20
11264;DHT22;5689;48.798;9.070;2023-05-19T13:20:25;15.60;93.40
11264;DHT22;5689;48.798;9.070;2023-05-19T13:22:54;15.60;94.00
11264;DHT22;5689;48.798;9.070;2023-05-19T13:25:22;15.50;93.00
11264;DHT22;5689;48.798;9.070;2023-05-19T13:27:51;15.60;93.60
11264;DHT22;5689;48.798;9.070;2023-05-19T13:30:21;15.80;93.10
11264;DHT22;5689;48.798;9.070;2023-05-19T13:32:50;15.50;93.40
11264;DHT22;5689;48.798;9.070;2023-05-19T13:35:18;15.10;93.70
11264;DHT22;5689;48.798;9.070;2023-05-19T13:37:46;15.30;94.40
11264;DHT22;5689;48.798;9.070;2023-05-19T13:40:15;15.90;93.60
11264;DHT22;5689;48.798;9.070;2023-05-19T13:42:44;15.90;94.10
11264;DHT22;5689;48.798;9.070;2023-05-19T13:45:12;16.20;93.50
11264;DHT22;5689;48.798;9.070;2023-05-19T13:47:42;16.30;93.70
11264;DHT22;5689;48.798;9.070;2023-05-19T13:50:10;16.60;93.40
11264;DHT22;5689;48.798;9.070;2023-05-19T13:52:38;16.50;93.40
11264;DHT22;5689;48.798;9.070;2023-05-19T13:55:08;16.10;93.90
11264;DHT22;5689;48.798;9.070;2023-05-19T13:57:36;16.30;93.50
11264;DHT22;5689;48.798;9.070;2023-05-19T14:00:06;16.10;93.60
11264;DHT22;5689;48.798;9.070;2023-05-19T14:02:40;16.40;92.90
11264;DHT22;5689;48.798;9.070;2023-05-19T14:05:09;16.40;92.70
11264;DHT22;5689;48.798;9.070;2023-05-19T14:07:37;16.30;92.70
11264;DHT22;5689;48.798;9.070;2023-05-19T14:10:06;16.30;92.90
11264;DHT22;5689;48.798;9.070;2023-05-19T14:12:35;16.30;92.90
11264;DHT22;5689;48.798;9.070;2023-05-19T14:15:13;15.90;93.00
11264;DHT22;5689;48.798;9.070;2023-05-19T14:17:41;15.80;93.60
11264;DHT22;5689;48.798;9.070;2023-05-19T14:20:11;15.70;93.40
11264;DHT22;5689;48.798;9.070;2023-05-19T14:22:39;15.80;93.50
11264;DHT22;5689;48.798;9.070;2023-05-19T14:25:07;15.80;93.90
11264;DHT22;5689;48.798;9.070;2023-05-19T14:27:35;15.80;93.50
11264;DHT22;5689;48.798;9.070;2023-05-19T14:30:06;15.90;93.30
11264;DHT22;5689;48.798;9.070;2023-05-19T14:32:34;16.00;93.50
11264;DHT22;5689;48.798;9.070;2023-05-19T14:35:03;16.20;93.10
11264;DHT22;5689;48.798;9.070;2023-05-19T14:37:32;16.10;93.40
11264;DHT22;5689;48.798;9.070;2023-05-19T14:40:00;16.20;94.20
11264;DHT22;5689;48.798;9.070;2023-05-19T14:42:29;16.60;93.20
11264;DHT22;5689;48.798;9.070;2023-05-19T14:44:57;16.20;93.00
11264;DHT22;5689;48.798;9.070;2023-05-19T14:47:25;16.60;93.40
11264;DHT22;5689;48.798;9.070;2023-05-19T14:49:53;17.00;92.50
11264;DHT22;5689;48.798;9.070;2023-05-19T14:52:21;17.00;92.50
11264;DHT22;5689;48.798;9.070;2023-05-19T14:54:51;16.70;92.40
11264;DHT22;5689;48.798;9.070;2023-05-19T14:57:19;16.60;92.40
11264;DHT22;5689;48.798;9.070;2023-05-19T14:59:47;16.40;92.60
11264;DHT22;5689;48.798;9.070;2023-05-19T15:02:15;16.10;92.20
11264;DHT22;5689;48.798;9.070;2023-05-19T15:04:43;15.90;93.10
11264;DHT22;5689;48.798;9.070;2023-05-19T15:07:11;16.40;93.20
11264;DHT22;5689;48.798;9.070;2023-05-19T15:09:38;16.50;93.00
11264;DHT22;5689;48.798;9.070;2023-05-19T15:12:08;16.80;92.70
11264;DHT22;5689;48.798;9.070;2023-05-19T15:14:36;16.80;92.70
11264;DHT22;5689;48.798;9.070;2023-05-19T15:17:04;16.90;92.40
11264;DHT22;5689;48.798;9.070;2023-05-19T15:19:32;16.60;93.10
11264;DHT22;5689;48.798;9.070;2023-05-19T15:22:00;16.50;93.20
11264;DHT22;5689;48.798;9.070;2023-05-19T15:24:28;16.70;93.20
11264;DHT22;5689;48.798;9.070;2023-05-19T15:26:56;16.50;93.40
11264;DHT22;5689;48.798;9.070;2023-05-19T15:29:25;16.50;93.80
11264;DHT22;5689;48.798;9.070;2023-05-19T15:31:53;16.60;93.50
11264;DHT22;5689;48.798;9.070;2023-05-19T15:34:22;16.90;92.90
11264;DHT22;5689;48.798;9.070;2023-05-19T15:36:50;16.40;93.20
11264;DHT22;5689;48.798;9.070;2023-05-19T15:39:18;16.60;93.40
11264;DHT22;5689;48.798;9.070;2023-05-19T15:41:47;16.90;93.50
11264;DHT22;5689;48.798;9.070;2023-05-19T15:44:16;17.10;92.70
11264;DHT22;5689;48.798;9.070;2023-05-19T15:46:46;16.90;92.70
11264;DHT22;5689;48.798;9.070;2023-05-19T15:49:14;16.70;93.30
11264;DHT22;5689;48.798;9.070;2023-05-19T15:51:43;16.50;93.00
11264;DHT22;5689;48.798;9.070;2023-05-19T15:54:12;16.80;93.30
11264;DHT22;5689;48.798;9.070;2023-05-19T15:56:40;16.90;92.70
11264;DHT22;5689;48.798;9.070;2023-05-19T15:59:08;17.00;92.20
11264;DHT22;5689;48.798;9.070;2023-05-19T16:01:36;16.60;92.70
11264;DHT22;5689;48.798;9.070;2023-05-19T16:04:05;16.60;92.90
11264;DHT22;5689;48.798;9.070;2023-05-19T16:06:33;16.60;93.80
11264;DHT22;5689;48.798;9.070;2023-05-19T16:09:01;16.90;92.70
11264;DHT22;5689;48.798;9.070;2023-05-19T16:11:29;16.90;92.60